METAR és
SPECI
METAR LHBP 262200Z VRB02KT CAVOK 15/13 Q1016 NOSIG=
METAR LHBP 262130Z 00000KT CAVOK 15/13 Q1016 NOSIG=
METAR LHBP 262100Z VRB03KT CAVOK 14/12 Q1016 NOSIG=
METAR LHBP 262030Z VRB01KT CAVOK 16/13 Q1015 NOSIG=
METAR LHBP 262000Z 00000KT CAVOK 17/13 Q1015 NOSIG=
METAR LHBP 261930Z 31005KT CAVOK 18/13 Q1015 NOSIG=
METAR LHBP 261900Z 31005KT CAVOK 19/14 Q1015 NOSIG=
METAR LHBP 261830Z 30008KT CAVOK 20/14 Q1015 NOSIG=
METAR LHBP 261800Z 30007KT CAVOK 21/14 Q1014 NOSIG=
METAR LHBP 261730Z 30007KT CAVOK 23/14 Q1014 NOSIG=
METAR LHBP 261700Z 30007KT 270V330 CAVOK 24/14 Q1014 NOSIG=
METAR LHBP 261630Z 34008KT CAVOK 25/14 Q1014 NOSIG=
METAR LHBP 261600Z 30009KT CAVOK 25/14 Q1014 NOSIG=
METAR LHBP 261530Z 28009KT 250V310 CAVOK 25/13 Q1014 NOSIG=
TAF
TAF LHBP 261700Z 2618/2718 30007KT CAVOK BECMG 2618/2620 VRB03KT TEMPO 2708/2714 18007KT=
GAMET
Nincs érvényes távirat! 
FAHU41 LHBM 261100
LHCC GAMET VALID 261200/261800 LHBP-
BUDAPEST FIR BLW FL100
SECN I
SIGWX: ISOL TS E OF E01840 AND NW OF LINE N4743 E01743 -
N4634 E01627
SIG CLD: ISOL TCU CB 3000-4500/XXX FT AGL E OF E01840 AND
NW OF LINE N4743 E01743 - N4634 E01627
SIGMETS APPLICABLE: NIL=
OMSZ: 2016. május 26. 12:36 (10:36  UTC)
[FAHU41]
AIRMET
Nincs érvényes távirat! 
WAHU41 LHBM 191310
LHCC AIRMET 01 VALID 191310/191700 LHBP-
LHCC BUDAPEST FIR ISOL TS OBS AT 1308 BTN E01900 AND E02030
TOP ABV FL100 MOV N NC=
OMSZ: 2016. május 19. 15:18 (13:18  UTC)
[WAHU41]
SIGMET
Nincs érvényes távirat! 
WSHU31 LHBM 251915
LHCC SIGMET 02 VALID 251915/252100 LHBP-
LHCC BUDAPEST FIR SQL TS FCST IN LINE N4742 E01914 -
N4611 E01944 TOP FL350 MOV SSE WKN=
OMSZ: 2016. május 25. 21:20 (19:20  UTC)
[WSHU31]
SIGMET
Vulkáni hamufelhő
Nincs érvényes távirat! 
WVHU31 LHBM 271515 CCA
LHCC SIGMET 03 VALID 271515/271800 LHBP-
LHCC BUDAPEST FIR EXERCISE VOLCEX12/01
CNL VA SIGMET 02 271200/271800
EXERCISE EXERCISE EXERCISE VOLCEX12/01=
OMSZ: 2015. április 14. 15:15 (13:15  UTC)
[WVHU31]